createdAt,value
2018-09-08T00:00:49.674Z,99.9
2018-09-08T00:05:52.180Z,99.9
2018-09-08T00:10:54.586Z,99.9
2018-09-08T00:15:57.278Z,99.9
2018-09-08T00:20:59.518Z,99.9
2018-09-08T00:26:02.014Z,99.9
2018-09-08T00:36:06.869Z,99.9
2018-09-08T00:41:09.350Z,99.9
2018-09-08T00:46:11.992Z,99.9
2018-09-08T00:51:14.275Z,99.9
2018-09-08T00:56:16.713Z,99.9
2018-09-08T01:01:19.220Z,99.9
2018-09-08T01:06:21.641Z,99.9
2018-09-08T01:11:24.098Z,99.9
2018-09-08T01:16:26.580Z,99.9
2018-09-08T01:21:29.057Z,99.9
2018-09-08T01:26:31.483Z,99.9
2018-09-08T01:31:33.948Z,99.9
2018-09-08T01:36:36.372Z,99.9
2018-09-08T01:41:38.839Z,99.9
2018-09-08T01:46:41.304Z,99.9
2018-09-08T01:51:43.750Z,99.9
2018-09-08T01:56:46.218Z,99.9
2018-09-08T02:01:48.664Z,99.9
2018-09-08T02:06:51.140Z,99.9
2018-09-08T02:11:53.608Z,99.9
2018-09-08T02:16:56.055Z,99.9
2018-09-08T02:21:58.570Z,99.9
2018-09-08T02:27:00.955Z,99.9
2018-09-08T02:32:03.428Z,99.9
2018-09-08T02:37:05.910Z,99.9
2018-09-08T02:42:08.326Z,99.9
2018-09-08T02:47:10.827Z,99.9
2018-09-08T02:52:13.246Z,99.9
2018-09-08T02:57:15.738Z,99.9
2018-09-08T03:02:18.168Z,99.9
2018-09-08T03:07:20.656Z,99.9
2018-09-08T03:12:23.233Z,99.9
2018-09-08T03:17:25.535Z,99.9
2018-09-08T03:22:28.012Z,99.9
2018-09-08T03:27:30.455Z,99.9
2018-09-08T03:32:32.923Z,99.9
2018-09-08T03:37:35.478Z,99.9
2018-09-08T03:42:37.888Z,99.9
2018-09-08T03:47:40.330Z,99.9
2018-09-08T03:52:42.880Z,99.9
2018-09-08T03:57:45.604Z,99.9
2018-09-08T04:02:47.675Z,99.9
2018-09-08T04:07:50.242Z,99.9
2018-09-08T04:12:52.652Z,99.9
2018-09-08T04:17:55.132Z,99.9
2018-09-08T04:22:57.520Z,99.9
2018-09-08T04:28:00.145Z,99.9
2018-09-08T04:33:02.572Z,99.9
2018-09-08T04:38:04.910Z,99.9
2018-09-08T04:43:07.334Z,99.9
2018-09-08T04:48:09.775Z,99.9
2018-09-08T04:53:12.232Z,99.9
2018-09-08T04:58:14.696Z,99.9
2018-09-08T05:03:17.189Z,99.9
2018-09-08T05:08:19.644Z,99.9
2018-09-08T05:13:22.217Z,99.9
2018-09-08T05:18:24.509Z,99.9
2018-09-08T05:23:26.980Z,99.9
2018-09-08T05:28:29.444Z,99.9
2018-09-08T05:33:32.066Z,99.9
2018-09-08T05:38:34.352Z,99.9
2018-09-08T05:43:37.080Z,99.9
2018-09-08T05:48:39.621Z,99.9
2018-09-08T05:53:41.741Z,99.9
2018-09-08T05:58:44.213Z,99.9
2018-09-08T06:03:46.663Z,39.7
2018-09-08T06:08:49.132Z,37.3
2018-09-08T06:13:51.680Z,50.8
2018-09-08T06:18:54.068Z,27.7
2018-09-08T06:23:56.488Z,9.8
2018-09-08T06:28:58.947Z,1
2018-09-08T06:34:01.396Z,1
2018-09-08T06:39:03.925Z,1
2018-09-08T06:44:06.555Z,1
2018-09-08T06:49:08.774Z,1
2018-09-08T06:54:11.292Z,4.9
2018-09-08T06:59:13.713Z,3.8
2018-09-08T07:04:16.156Z,1
2018-09-08T07:09:18.638Z,1
2018-09-08T07:14:21.114Z,1
2018-09-08T07:19:23.531Z,1
2018-09-08T07:24:25.984Z,1
2018-09-08T07:29:28.439Z,1
2018-09-08T07:34:30.995Z,1
2018-09-08T07:39:33.386Z,1
2018-09-08T07:44:36.041Z,1
2018-09-08T07:49:38.281Z,1
2018-09-08T07:54:40.792Z,1
2018-09-08T07:59:43.200Z,1
2018-09-08T08:04:45.663Z,1
2018-09-08T08:09:48.116Z,1
2018-09-08T08:14:50.704Z,1
2018-09-08T08:19:53.091Z,1
2018-09-08T08:24:55.484Z,1
2018-09-08T08:29:57.963Z,1
2018-09-08T08:35:00.410Z,1
2018-09-08T08:40:02.874Z,1
2018-09-08T08:45:05.338Z,1
2018-09-08T08:50:07.789Z,1
2018-09-08T08:55:10.246Z,1
2018-09-08T09:00:12.695Z,1
2018-09-08T09:05:15.176Z,1
2018-09-08T09:10:17.646Z,1
2018-09-08T09:15:20.387Z,1
2018-09-08T09:20:22.541Z,1
2018-09-08T09:25:25.003Z,1
2018-09-08T09:30:27.530Z,1
2018-09-08T09:35:30.072Z,1
2018-09-08T09:40:32.730Z,1
2018-09-08T09:45:34.847Z,1
2018-09-08T09:50:37.355Z,1
2018-09-08T09:55:39.753Z,1
2018-09-08T10:00:42.197Z,1
2018-09-08T10:05:44.682Z,1
2018-09-08T10:10:47.151Z,1
2018-09-08T10:15:49.847Z,1
2018-09-08T10:20:52.124Z,1
2018-09-08T10:25:54.533Z,1
2018-09-08T10:30:56.971Z,1
2018-09-08T10:35:59.429Z,1
2018-09-08T10:41:01.895Z,1
2018-09-08T10:46:04.584Z,1
2018-09-08T10:51:06.798Z,1
2018-09-08T10:56:09.255Z,1
2018-09-08T11:01:11.715Z,1
2018-09-08T11:06:14.164Z,1
2018-09-08T11:11:16.619Z,1
2018-09-08T11:16:19.090Z,1
2018-09-08T11:21:21.545Z,1
2018-09-08T11:26:24.008Z,1
2018-09-08T11:31:26.475Z,1
2018-09-08T11:36:28.959Z,1
2018-09-08T11:41:31.391Z,1
2018-09-08T11:46:33.899Z,1
2018-09-08T11:51:36.351Z,1
2018-09-08T11:56:38.816Z,1
2018-09-08T12:01:41.333Z,1
2018-09-08T12:06:43.666Z,1
2018-09-08T12:11:46.158Z,1
2018-09-08T12:16:48.583Z,1
2018-09-08T12:21:51.167Z,1
2018-09-08T12:26:53.511Z,1
2018-09-08T12:31:55.993Z,1
2018-09-08T12:36:58.451Z,1
2018-09-08T12:42:00.897Z,1
2018-09-08T12:47:03.338Z,1
2018-09-08T12:52:05.807Z,1
2018-09-08T12:57:08.258Z,1
2018-09-08T13:02:10.782Z,1
2018-09-08T13:07:13.216Z,1
2018-09-08T13:12:15.622Z,1
2018-09-08T13:17:18.127Z,1
2018-09-08T13:22:20.552Z,1
2018-09-08T13:27:23.005Z,1
2018-09-08T13:32:25.511Z,1
2018-09-08T13:37:27.918Z,1
2018-09-08T13:42:30.407Z,1
2018-09-08T13:47:32.828Z,1
2018-09-08T13:52:35.343Z,1
2018-09-08T13:57:37.792Z,1
2018-09-08T14:02:40.429Z,1
2018-09-08T14:07:42.790Z,1
2018-09-08T14:12:45.125Z,1
2018-09-08T14:17:47.596Z,1
2018-09-08T14:22:50.450Z,1
2018-09-08T14:27:52.725Z,1
2018-09-08T14:32:55.117Z,1
2018-09-08T14:37:57.448Z,1
2018-09-08T14:42:59.895Z,1
2018-09-08T14:48:02.424Z,1
2018-09-08T14:53:04.803Z,1
2018-09-08T14:58:07.697Z,1
2018-09-08T15:03:09.720Z,1
2018-09-08T15:08:12.185Z,1
2018-09-08T15:13:14.647Z,1
2018-09-08T15:18:17.137Z,1
2018-09-08T15:23:19.595Z,1
2018-09-08T15:28:22.133Z,1
2018-09-08T15:33:24.472Z,1
2018-09-08T15:38:27.051Z,1
2018-09-08T15:43:29.755Z,1
2018-09-08T15:48:31.854Z,1
2018-09-08T15:53:34.299Z,1
2018-09-08T15:58:36.795Z,1
2018-09-08T16:03:39.218Z,1
2018-09-08T16:08:41.692Z,1
2018-09-08T16:13:44.151Z,1
2018-09-08T16:18:46.634Z,1
2018-09-08T16:23:49.106Z,1
2018-09-08T16:28:51.522Z,1
2018-09-08T16:33:53.972Z,1
2018-09-08T16:38:56.426Z,1
2018-09-08T16:43:58.981Z,1
2018-09-08T16:49:01.338Z,1
2018-09-08T16:54:03.809Z,1
2018-09-08T16:59:06.349Z,1
2018-09-08T17:04:08.723Z,1
2018-09-08T17:09:11.187Z,1
2018-09-08T17:14:13.691Z,1
2018-09-08T17:19:16.132Z,3.2
2018-09-08T17:24:18.597Z,9.6
2018-09-08T17:29:21.084Z,11
2018-09-08T17:34:23.478Z,16.3
2018-09-08T17:39:25.961Z,17.1
2018-09-08T17:44:28.404Z,22.4
2018-09-08T17:49:30.852Z,27
2018-09-08T17:54:33.446Z,41.5
2018-09-08T17:59:35.775Z,47.9
2018-09-08T18:04:38.224Z,68
2018-09-08T18:09:40.668Z,78.3
2018-09-08T18:14:43.301Z,87.8
2018-09-08T18:19:45.595Z,93.9
2018-09-08T18:24:48.098Z,99.7
2018-09-08T18:29:50.561Z,99.9
2018-09-08T18:34:53.076Z,99.9
2018-09-08T18:39:55.459Z,99.9
2018-09-08T18:44:57.926Z,99.9
2018-09-08T18:50:00.385Z,99.9
2018-09-08T18:55:02.814Z,99.9
2018-09-08T19:00:05.316Z,99.9
2018-09-08T19:05:07.711Z,99.9
2018-09-08T19:10:10.191Z,99.9
2018-09-08T19:15:12.652Z,99.9
2018-09-08T19:20:15.088Z,99.9
2018-09-08T19:30:20.021Z,99.9
2018-09-08T19:35:22.477Z,99.9
2018-09-08T19:40:24.937Z,99.9
2018-09-08T19:45:27.376Z,99.9
2018-09-08T19:50:29.830Z,99.9
2018-09-08T19:55:32.301Z,99.9
2018-09-08T20:00:34.747Z,99.9
2018-09-08T20:05:37.281Z,99.9
2018-09-08T20:10:39.685Z,99.9
2018-09-08T20:15:42.124Z,99.9
2018-09-08T20:20:44.585Z,99.9
2018-09-08T20:25:47.044Z,99.9
2018-09-08T20:30:49.539Z,99.9
2018-09-08T20:35:51.989Z,99.9
2018-09-08T20:40:54.411Z,99.9
2018-09-08T20:45:56.885Z,99.9
2018-09-08T20:50:59.340Z,99.9
2018-09-08T20:56:01.922Z,99.9
2018-09-08T21:01:04.257Z,99.9
2018-09-08T21:06:06.726Z,99.9
2018-09-08T21:11:09.170Z,99.9
2018-09-08T21:16:11.621Z,99.9
2018-09-08T21:21:14.104Z,99.9
2018-09-08T21:26:16.534Z,99.9
2018-09-08T21:31:19.000Z,99.9
2018-09-08T21:36:21.485Z,99.9
2018-09-08T21:41:23.920Z,99.9
2018-09-08T21:46:26.405Z,99.9
2018-09-08T21:51:28.868Z,99.9
2018-09-08T21:56:31.296Z,99.9
2018-09-08T22:01:33.741Z,99.9
2018-09-08T22:06:36.194Z,99.9
2018-09-08T22:11:38.658Z,99.9
2018-09-08T22:16:41.146Z,99.9
2018-09-08T22:21:43.564Z,99.9
2018-09-08T22:26:46.097Z,99.9
2018-09-08T22:31:48.483Z,99.9
2018-09-08T22:36:51.060Z,99.9
2018-09-08T22:41:53.415Z,99.9
2018-09-08T22:46:55.862Z,99.9
2018-09-08T22:51:58.336Z,99.9
2018-09-08T22:57:00.782Z,99.9
2018-09-08T23:02:03.347Z,99.9
2018-09-08T23:07:05.694Z,99.9
2018-09-08T23:12:08.187Z,99.9
2018-09-08T23:17:10.599Z,99.9
2018-09-08T23:22:13.095Z,99.9
2018-09-08T23:27:15.580Z,99.9
2018-09-08T23:32:17.976Z,99.9
2018-09-08T23:37:20.433Z,99.9
2018-09-08T23:42:22.902Z,99.9
2018-09-08T23:47:25.364Z,99.9
2018-09-08T23:52:27.818Z,99.9
2018-09-08T23:57:30.298Z,99.9
